sensor_id;sensor_type;location;lat;lon;timestamp;temperature;humidity
35593;DHT22;64447;52.140;5.602;2023-04-25T00:00:57;8.20;99.90
35593;DHT22;64447;52.140;5.602;2023-04-25T00:03:23;8.00;99.90
35593;DHT22;64447;52.140;5.602;2023-04-25T00:09:12;8.00;99.90
35593;DHT22;64447;52.140;5.602;2023-04-25T00:11:37;8.20;99.90
35593;DHT22;64447;52.140;5.602;2023-04-25T00:14:04;8.40;99.90
35593;DHT22;64447;52.140;5.602;2023-04-25T00:16:30;8.30;99.90
35593;DHT22;64447;52.140;5.602;2023-04-25T00:18:59;8.20;99.90
35593;DHT22;64447;52.140;5.602;2023-04-25T00:21:25;8.20;99.90
35593;DHT22;64447;52.140;5.602;2023-04-25T00:23:54;8.40;99.90
35593;DHT22;64447;52.140;5.602;2023-04-25T00:26:19;8.40;99.90
35593;DHT22;64447;52.140;5.602;2023-04-25T00:28:46;8.40;99.90
35593;DHT22;64447;52.140;5.602;2023-04-25T00:31:12;8.40;99.90
35593;DHT22;64447;52.140;5.602;2023-04-25T00:33:38;8.50;99.90
35593;DHT22;64447;52.140;5.602;2023-04-25T00:39:25;8.50;99.90
35593;DHT22;64447;52.140;5.602;2023-04-25T00:41:50;8.60;99.90
35593;DHT22;64447;52.140;5.602;2023-04-25T00:44:18;9.10;99.90
35593;DHT22;64447;52.140;5.602;2023-04-25T00:46:47;8.60;99.90
35593;DHT22;64447;52.140;5.602;2023-04-25T00:49:13;8.70;99.90
35593;DHT22;64447;52.140;5.602;2023-04-25T00:51:41;8.90;99.90
35593;DHT22;64447;52.140;5.602;2023-04-25T00:54:07;8.70;99.90
35593;DHT22;64447;52.140;5.602;2023-04-25T00:56:32;8.70;99.90
35593;DHT22;64447;52.140;5.602;2023-04-25T00:58:58;8.70;99.90
35593;DHT22;64447;52.140;5.602;2023-04-25T01:01:24;8.70;99.90
35593;DHT22;64447;52.140;5.602;2023-04-25T01:03:50;8.80;99.90
35593;DHT22;64447;52.140;5.602;2023-04-25T01:09:38;8.60;99.90
35593;DHT22;64447;52.140;5.602;2023-04-25T01:12:04;8.70;99.90
35593;DHT22;64447;52.140;5.602;2023-04-25T01:14:29;8.70;99.90
35593;DHT22;64447;52.140;5.602;2023-04-25T01:16:55;8.80;99.90
35593;DHT22;64447;52.140;5.602;2023-04-25T01:19:21;9.40;99.90
35593;DHT22;64447;52.140;5.602;2023-04-25T01:21:46;8.80;99.90
35593;DHT22;64447;52.140;5.602;2023-04-25T01:24:12;8.90;99.90
35593;DHT22;64447;52.140;5.602;2023-04-25T01:26:39;8.90;99.90
35593;DHT22;64447;52.140;5.602;2023-04-25T01:29:07;8.90;99.90
35593;DHT22;64447;52.140;5.602;2023-04-25T01:31:33;8.90;99.90
35593;DHT22;64447;52.140;5.602;2023-04-25T01:34:00;8.90;99.90
35593;DHT22;64447;52.140;5.602;2023-04-25T01:39:48;8.90;99.90
35593;DHT22;64447;52.140;5.602;2023-04-25T01:42:15;8.90;99.90
35593;DHT22;64447;52.140;5.602;2023-04-25T01:44:41;8.90;99.90
35593;DHT22;64447;52.140;5.602;2023-04-25T01:47:06;8.70;99.90
35593;DHT22;64447;52.140;5.602;2023-04-25T01:49:32;8.70;99.90
35593;DHT22;64447;52.140;5.602;2023-04-25T01:51:58;8.60;99.90
35593;DHT22;64447;52.140;5.602;2023-04-25T01:54:23;8.60;99.90
35593;DHT22;64447;52.140;5.602;2023-04-25T01:56:52;8.40;99.90
35593;DHT22;64447;52.140;5.602;2023-04-25T01:59:18;8.20;99.90
35593;DHT22;64447;52.140;5.602;2023-04-25T02:01:47;8.00;99.90
35593;DHT22;64447;52.140;5.602;2023-04-25T02:04:12;7.90;99.90
35593;DHT22;64447;52.140;5.602;2023-04-25T02:10:18;7.60;99.90
35593;DHT22;64447;52.140;5.602;2023-04-25T02:12:44;7.70;99.90
35593;DHT22;64447;52.140;5.602;2023-04-25T02:15:10;8.00;99.90
35593;DHT22;64447;52.140;5.602;2023-04-25T02:17:36;8.00;99.90
35593;DHT22;64447;52.140;5.602;2023-04-25T02:20:01;8.40;99.90
35593;DHT22;64447;52.140;5.602;2023-04-25T02:22:28;7.90;99.90
35593;DHT22;64447;52.140;5.602;2023-04-25T02:24:55;8.00;99.90
35593;DHT22;64447;52.140;5.602;2023-04-25T02:27:21;8.20;99.90
35593;DHT22;64447;52.140;5.602;2023-04-25T02:29:46;8.50;99.90
35593;DHT22;64447;52.140;5.602;2023-04-25T02:32:12;8.20;99.90
35593;DHT22;64447;52.140;5.602;2023-04-25T02:34:38;8.30;99.90
35593;DHT22;64447;52.140;5.602;2023-04-25T02:37:03;8.30;99.90
35593;DHT22;64447;52.140;5.602;2023-04-25T02:39:29;8.40;99.90
35593;DHT22;64447;52.140;5.602;2023-04-25T02:41:54;8.40;99.90
35593;DHT22;64447;52.140;5.602;2023-04-25T02:44:20;8.40;99.90
35593;DHT22;64447;52.140;5.602;2023-04-25T02:46:45;8.40;99.90
35593;DHT22;64447;52.140;5.602;2023-04-25T02:49:11;8.40;99.90
35593;DHT22;64447;52.140;5.602;2023-04-25T02:54:58;8.40;99.90
35593;DHT22;64447;52.140;5.602;2023-04-25T02:57:24;8.50;99.90
35593;DHT22;64447;52.140;5.602;2023-04-25T02:59:49;8.70;99.90
35593;DHT22;64447;52.140;5.602;2023-04-25T03:02:15;8.30;99.90
35593;DHT22;64447;52.140;5.602;2023-04-25T03:04:41;8.40;99.90
35593;DHT22;64447;52.140;5.602;2023-04-25T03:07:06;8.40;99.90
35593;DHT22;64447;52.140;5.602;2023-04-25T03:09:32;8.40;99.90
35593;DHT22;64447;52.140;5.602;2023-04-25T03:11:58;8.30;99.90
35593;DHT22;64447;52.140;5.602;2023-04-25T03:14:23;8.30;99.90
35593;DHT22;64447;52.140;5.602;2023-04-25T03:16:49;8.30;99.90
35593;DHT22;64447;52.140;5.602;2023-04-25T03:19:14;8.60;99.90
35593;DHT22;64447;52.140;5.602;2023-04-25T03:25:04;8.10;99.90
35593;DHT22;64447;52.140;5.602;2023-04-25T03:27:30;8.10;99.90
35593;DHT22;64447;52.140;5.602;2023-04-25T03:29:55;8.30;99.90
35593;DHT22;64447;52.140;5.602;2023-04-25T03:32:21;8.10;99.90
35593;DHT22;64447;52.140;5.602;2023-04-25T03:34:47;7.90;99.90
35593;DHT22;64447;52.140;5.602;2023-04-25T03:37:12;7.90;99.90
35593;DHT22;64447;52.140;5.602;2023-04-25T03:39:38;7.80;99.90
35593;DHT22;64447;52.140;5.602;2023-04-25T03:42:04;8.60;99.90
35593;DHT22;64447;52.140;5.602;2023-04-25T03:44:29;7.70;99.90
35593;DHT22;64447;52.140;5.602;2023-04-25T03:46:55;7.60;99.90
35593;DHT22;64447;52.140;5.602;2023-04-25T03:49:20;7.70;99.90
35593;DHT22;64447;52.140;5.602;2023-04-25T03:55:09;7.50;99.90
35593;DHT22;64447;52.140;5.602;2023-04-25T03:57:35;7.50;99.90
35593;DHT22;64447;52.140;5.602;2023-04-25T04:00:00;7.50;99.90
35593;DHT22;64447;52.140;5.602;2023-04-25T04:02:26;7.60;99.90
35593;DHT22;64447;52.140;5.602;2023-04-25T04:04:51;7.50;99.90
35593;DHT22;64447;52.140;5.602;2023-04-25T04:07:17;7.30;99.90
35593;DHT22;64447;52.140;5.602;2023-04-25T04:09:42;7.20;99.90
35593;DHT22;64447;52.140;5.602;2023-04-25T04:12:08;7.30;99.90
35593;DHT22;64447;52.140;5.602;2023-04-25T04:14:34;6.80;99.90
35593;DHT22;64447;52.140;5.602;2023-04-25T04:16:59;6.70;99.90
35593;DHT22;64447;52.140;5.602;2023-04-25T04:19:25;6.60;99.90
35593;DHT22;64447;52.140;5.602;2023-04-25T04:25:13;6.10;99.90
35593;DHT22;64447;52.140;5.602;2023-04-25T04:27:38;6.50;99.90
35593;DHT22;64447;52.140;5.602;2023-04-25T04:30:06;6.00;99.90
35593;DHT22;64447;52.140;5.602;2023-04-25T04:32:32;5.40;99.90
35593;DHT22;64447;52.140;5.602;2023-04-25T04:34:59;6.60;99.90
35593;DHT22;64447;52.140;5.602;2023-04-25T04:37:25;6.40;99.90
35593;DHT22;64447;52.140;5.602;2023-04-25T04:39:50;6.90;99.90
35593;DHT22;64447;52.140;5.602;2023-04-25T04:42:17;6.50;99.90
35593;DHT22;64447;52.140;5.602;2023-04-25T04:44:43;7.90;99.90
35593;DHT22;64447;52.140;5.602;2023-04-25T04:47:09;7.10;99.90
35593;DHT22;64447;52.140;5.602;2023-04-25T04:49:36;6.90;99.90
35593;DHT22;64447;52.140;5.602;2023-04-25T04:55:23;6.60;99.90
35593;DHT22;64447;52.140;5.602;2023-04-25T04:57:49;6.60;99.90
35593;DHT22;64447;52.140;5.602;2023-04-25T05:00:15;6.10;99.90
35593;DHT22;64447;52.140;5.602;2023-04-25T05:02:41;6.20;99.90
35593;DHT22;64447;52.140;5.602;2023-04-25T05:05:07;6.10;99.90
35593;DHT22;64447;52.140;5.602;2023-04-25T05:07:33;6.30;99.90
35593;DHT22;64447;52.140;5.602;2023-04-25T05:09:59;6.10;99.90
35593;DHT22;64447;52.140;5.602;2023-04-25T05:12:24;6.30;99.90
35593;DHT22;64447;52.140;5.602;2023-04-25T05:14:50;6.30;99.90
35593;DHT22;64447;52.140;5.602;2023-04-25T05:17:16;6.20;99.90
35593;DHT22;64447;52.140;5.602;2023-04-25T05:19:41;6.30;99.90
35593;DHT22;64447;52.140;5.602;2023-04-25T05:25:29;6.60;99.90
35593;DHT22;64447;52.140;5.602;2023-04-25T05:27:55;6.80;99.90
35593;DHT22;64447;52.140;5.602;2023-04-25T05:30:20;6.70;99.90
35593;DHT22;64447;52.140;5.602;2023-04-25T05:32:46;6.60;99.90
35593;DHT22;64447;52.140;5.602;2023-04-25T05:35:12;6.70;99.90
35593;DHT22;64447;52.140;5.602;2023-04-25T05:40:59;6.60;99.90
35593;DHT22;64447;52.140;5.602;2023-04-25T05:43:25;6.70;99.90
35593;DHT22;64447;52.140;5.602;2023-04-25T05:45:50;6.80;99.90
35593;DHT22;64447;52.140;5.602;2023-04-25T05:48:16;6.80;99.90
35593;DHT22;64447;52.140;5.602;2023-04-25T05:50:42;6.80;99.90
35593;DHT22;64447;52.140;5.602;2023-04-25T05:53:07;7.00;99.90
35593;DHT22;64447;52.140;5.602;2023-04-25T05:55:34;7.30;99.90
35593;DHT22;64447;52.140;5.602;2023-04-25T05:57:59;7.20;99.90
35593;DHT22;64447;52.140;5.602;2023-04-25T06:00:25;7.20;99.90
35593;DHT22;64447;52.140;5.602;2023-04-25T06:02:51;7.30;99.90
35593;DHT22;64447;52.140;5.602;2023-04-25T06:05:17;7.40;99.90
35593;DHT22;64447;52.140;5.602;2023-04-25T06:11:04;7.30;99.90
35593;DHT22;64447;52.140;5.602;2023-04-25T06:13:30;7.20;99.90
35593;DHT22;64447;52.140;5.602;2023-04-25T06:15:56;7.30;99.90
35593;DHT22;64447;52.140;5.602;2023-04-25T06:18:21;7.30;99.90
35593;DHT22;64447;52.140;5.602;2023-04-25T06:20:47;7.30;99.90
35593;DHT22;64447;52.140;5.602;2023-04-25T06:23:12;7.40;99.90
35593;DHT22;64447;52.140;5.602;2023-04-25T06:25:38;7.50;99.90
35593;DHT22;64447;52.140;5.602;2023-04-25T06:28:03;7.50;99.90
35593;DHT22;64447;52.140;5.602;2023-04-25T06:30:29;7.50;99.90
35593;DHT22;64447;52.140;5.602;2023-04-25T06:32:55;7.40;99.90
35593;DHT22;64447;52.140;5.602;2023-04-25T06:35:20;7.40;99.90
35593;DHT22;64447;52.140;5.602;2023-04-25T06:41:08;7.50;99.90
35593;DHT22;64447;52.140;5.602;2023-04-25T06:43:33;7.50;99.90
35593;DHT22;64447;52.140;5.602;2023-04-25T06:45:59;7.60;99.90
35593;DHT22;64447;52.140;5.602;2023-04-25T06:48:27;7.80;99.90
35593;DHT22;64447;52.140;5.602;2023-04-25T06:50:52;8.00;99.90
35593;DHT22;64447;52.140;5.602;2023-04-25T06:53:18;7.90;99.90
35593;DHT22;64447;52.140;5.602;2023-04-25T06:55:44;7.90;99.90
35593;DHT22;64447;52.140;5.602;2023-04-25T06:58:09;7.70;99.90
35593;DHT22;64447;52.140;5.602;2023-04-25T07:00:35;7.60;99.90
35593;DHT22;64447;52.140;5.602;2023-04-25T07:03:01;8.10;99.90
35593;DHT22;64447;52.140;5.602;2023-04-25T07:05:27;7.40;99.90
35593;DHT22;64447;52.140;5.602;2023-04-25T07:11:15;7.50;99.90
35593;DHT22;64447;52.140;5.602;2023-04-25T07:13:40;7.60;99.90
35593;DHT22;64447;52.140;5.602;2023-04-25T07:16:06;7.60;99.90
35593;DHT22;64447;52.140;5.602;2023-04-25T07:18:32;7.60;99.90
35593;DHT22;64447;52.140;5.602;2023-04-25T07:20:57;7.60;99.90
35593;DHT22;64447;52.140;5.602;2023-04-25T07:23:23;7.60;99.90
35593;DHT22;64447;52.140;5.602;2023-04-25T07:25:49;7.50;99.90
35593;DHT22;64447;52.140;5.602;2023-04-25T07:28:14;7.40;99.90
35593;DHT22;64447;52.140;5.602;2023-04-25T07:30:40;7.50;99.90
35593;DHT22;64447;52.140;5.602;2023-04-25T07:33:06;7.70;99.90
35593;DHT22;64447;52.140;5.602;2023-04-25T07:35:31;8.30;99.90
35593;DHT22;64447;52.140;5.602;2023-04-25T07:41:19;8.30;99.90
35593;DHT22;64447;52.140;5.602;2023-04-25T07:43:44;8.40;98.70
35593;DHT22;64447;52.140;5.602;2023-04-25T07:46:10;8.50;98.00
35593;DHT22;64447;52.140;5.602;2023-04-25T07:48:36;8.40;98.80
35593;DHT22;64447;52.140;5.602;2023-04-25T07:51:01;8.90;99.90
35593;DHT22;64447;52.140;5.602;2023-04-25T07:53:27;8.40;98.50
35593;DHT22;64447;52.140;5.602;2023-04-25T07:55:52;8.40;97.80
35593;DHT22;64447;52.140;5.602;2023-04-25T07:58:18;8.20;97.30
35593;DHT22;64447;52.140;5.602;2023-04-25T08:00:47;8.70;97.90
35593;DHT22;64447;52.140;5.602;2023-04-25T08:03:13;8.30;96.00
35593;DHT22;64447;52.140;5.602;2023-04-25T08:05:39;8.60;96.90
35593;DHT22;64447;52.140;5.602;2023-04-25T08:11:26;8.80;97.00
35593;DHT22;64447;52.140;5.602;2023-04-25T08:13:52;8.80;97.00
35593;DHT22;64447;52.140;5.602;2023-04-25T08:16:20;9.00;95.10
35593;DHT22;64447;52.140;5.602;2023-04-25T08:18:46;8.60;95.00
35593;DHT22;64447;52.140;5.602;2023-04-25T08:21:12;9.00;94.90
35593;DHT22;64447;52.140;5.602;2023-04-25T08:23:38;8.30;96.50
35593;DHT22;64447;52.140;5.602;2023-04-25T08:26:05;8.20;96.10
35593;DHT22;64447;52.140;5.602;2023-04-25T08:28:31;7.90;98.90
35593;DHT22;64447;52.140;5.602;2023-04-25T08:30:56;7.50;99.90
35593;DHT22;64447;52.140;5.602;2023-04-25T08:33:22;7.30;99.90
35593;DHT22;64447;52.140;5.602;2023-04-25T08:35:48;7.20;99.90
35593;DHT22;64447;52.140;5.602;2023-04-25T08:41:40;7.30;99.90
35593;DHT22;64447;52.140;5.602;2023-04-25T08:44:07;7.70;99.90
35593;DHT22;64447;52.140;5.602;2023-04-25T08:46:38;7.70;99.90
35593;DHT22;64447;52.140;5.602;2023-04-25T08:49:07;7.40;99.90
35593;DHT22;64447;52.140;5.602;2023-04-25T08:51:33;7.50;99.10
35593;DHT22;64447;52.140;5.602;2023-04-25T08:54:10;7.60;99.90
35593;DHT22;64447;52.140;5.602;2023-04-25T08:56:38;7.80;99.90
35593;DHT22;64447;52.140;5.602;2023-04-25T08:59:04;8.00;99.70
35593;DHT22;64447;52.140;5.602;2023-04-25T09:01:34;8.00;97.00
35593;DHT22;64447;52.140;5.602;2023-04-25T09:03:59;8.00;96.90
35593;DHT22;64447;52.140;5.602;2023-04-25T09:06:25;8.80;98.90
35593;DHT22;64447;52.140;5.602;2023-04-25T09:08:51;8.20;96.40
35593;DHT22;64447;52.140;5.602;2023-04-25T09:11:17;8.40;96.80
35593;DHT22;64447;52.140;5.602;2023-04-25T09:13:43;8.50;95.40
35593;DHT22;64447;52.140;5.602;2023-04-25T09:16:09;8.60;96.50
35593;DHT22;64447;52.140;5.602;2023-04-25T09:18:35;9.40;96.00
35593;DHT22;64447;52.140;5.602;2023-04-25T09:21:10;9.20;90.10
35593;DHT22;64447;52.140;5.602;2023-04-25T09:26:58;9.00;89.60
35593;DHT22;64447;52.140;5.602;2023-04-25T09:29:34;8.80;91.70
35593;DHT22;64447;52.140;5.602;2023-04-25T09:34:52;8.80;90.30
35593;DHT22;64447;52.140;5.602;2023-04-25T09:40:00;8.60;83.80
35593;DHT22;64447;52.140;5.602;2023-04-25T09:42:31;8.80;86.10
35593;DHT22;64447;52.140;5.602;2023-04-25T09:44:58;9.30;86.10
35593;DHT22;64447;52.140;5.602;2023-04-25T09:47:25;9.60;87.20
35593;DHT22;64447;52.140;5.602;2023-04-25T09:49:52;9.80;86.30
35593;DHT22;64447;52.140;5.602;2023-04-25T09:52:22;9.40;82.20
35593;DHT22;64447;52.140;5.602;2023-04-25T09:54:49;9.30;82.90
35593;DHT22;64447;52.140;5.602;2023-04-25T09:57:19;9.10;87.10
35593;DHT22;64447;52.140;5.602;2023-04-25T09:59:55;8.60;91.60
35593;DHT22;64447;52.140;5.602;2023-04-25T10:02:25;8.40;91.40
35593;DHT22;64447;52.140;5.602;2023-04-25T10:04:55;8.40;93.70
35593;DHT22;64447;52.140;5.602;2023-04-25T10:07:22;8.40;94.20
35593;DHT22;64447;52.140;5.602;2023-04-25T10:09:58;8.50;92.70
35593;DHT22;64447;52.140;5.602;2023-04-25T10:12:28;8.40;92.30
35593;DHT22;64447;52.140;5.602;2023-04-25T10:14:55;8.60;92.10
35593;DHT22;64447;52.140;5.602;2023-04-25T10:17:21;8.60;92.10
35593;DHT22;64447;52.140;5.602;2023-04-25T10:19:47;8.50;91.60
35593;DHT22;64447;52.140;5.602;2023-04-25T10:22:32;8.60;92.00
35593;DHT22;64447;52.140;5.602;2023-04-25T10:25:00;8.50;91.80
35593;DHT22;64447;52.140;5.602;2023-04-25T10:27:30;8.60;91.70
35593;DHT22;64447;52.140;5.602;2023-04-25T10:30:24;8.70;92.30
35593;DHT22;64447;52.140;5.602;2023-04-25T10:32:49;8.90;92.50
35593;DHT22;64447;52.140;5.602;2023-04-25T10:35:18;9.30;90.50
35593;DHT22;64447;52.140;5.602;2023-04-25T10:38:08;9.40;90.80
35593;DHT22;64447;52.140;5.602;2023-04-25T10:40:34;9.20;88.30
35593;DHT22;64447;52.140;5.602;2023-04-25T10:45:56;9.40;91.00
35593;DHT22;64447;52.140;5.602;2023-04-25T10:48:25;9.30;90.00
35593;DHT22;64447;52.140;5.602;2023-04-25T10:51:07;9.20;89.30
35593;DHT22;64447;52.140;5.602;2023-04-25T10:53:33;9.80;85.80
35593;DHT22;64447;52.140;5.602;2023-04-25T10:55:59;9.50;82.00
35593;DHT22;64447;52.140;5.602;2023-04-25T10:58:26;9.60;80.70
35593;DHT22;64447;52.140;5.602;2023-04-25T11:00:51;9.90;83.60
35593;DHT22;64447;52.140;5.602;2023-04-25T11:03:17;9.80;77.70
35593;DHT22;64447;52.140;5.602;2023-04-25T11:05:47;9.60;81.20
35593;DHT22;64447;52.140;5.602;2023-04-25T11:08:21;9.90;84.70
35593;DHT22;64447;52.140;5.602;2023-04-25T11:10:51;10.30;83.20
35593;DHT22;64447;52.140;5.602;2023-04-25T11:13:17;10.40;81.80
35593;DHT22;64447;52.140;5.602;2023-04-25T11:15:45;10.40;79.60
35593;DHT22;64447;52.140;5.602;2023-04-25T11:18:15;10.00;78.50
35593;DHT22;64447;52.140;5.602;2023-04-25T11:20:49;9.90;80.90
35593;DHT22;64447;52.140;5.602;2023-04-25T11:23:15;9.90;81.80
35593;DHT22;64447;52.140;5.602;2023-04-25T11:25:41;10.30;81.70
35593;DHT22;64447;52.140;5.602;2023-04-25T11:28:07;10.40;80.60
35593;DHT22;64447;52.140;5.602;2023-04-25T11:30:33;10.20;85.90
35593;DHT22;64447;52.140;5.602;2023-04-25T11:32:58;9.70;92.00
35593;DHT22;64447;52.140;5.602;2023-04-25T11:35:25;9.00;93.60
35593;DHT22;64447;52.140;5.602;2023-04-25T11:37:51;8.80;94.20
35593;DHT22;64447;52.140;5.602;2023-04-25T11:40:16;8.20;93.50
35593;DHT22;64447;52.140;5.602;2023-04-25T11:42:47;8.00;95.70
35593;DHT22;64447;52.140;5.602;2023-04-25T11:45:13;8.20;93.30
35593;DHT22;64447;52.140;5.602;2023-04-25T11:47:39;8.60;94.70
35593;DHT22;64447;52.140;5.602;2023-04-25T11:50:06;9.00;94.70
35593;DHT22;64447;52.140;5.602;2023-04-25T11:52:44;9.30;94.20
35593;DHT22;64447;52.140;5.602;2023-04-25T11:55:14;9.50;92.20
35593;DHT22;64447;52.140;5.602;2023-04-25T11:57:42;9.70;92.00
35593;DHT22;64447;52.140;5.602;2023-04-25T12:00:13;9.70;90.00
35593;DHT22;64447;52.140;5.602;2023-04-25T12:02:41;9.50;87.20
35593;DHT22;64447;52.140;5.602;2023-04-25T12:05:08;9.70;87.20
35593;DHT22;64447;52.140;5.602;2023-04-25T12:07:34;9.70;87.50
35593;DHT22;64447;52.140;5.602;2023-04-25T12:10:07;9.70;86.00
35593;DHT22;64447;52.140;5.602;2023-04-25T12:12:34;9.70;86.80
35593;DHT22;64447;52.140;5.602;2023-04-25T12:15:13;9.80;84.30
35593;DHT22;64447;52.140;5.602;2023-04-25T12:17:45;9.70;85.30
35593;DHT22;64447;52.140;5.602;2023-04-25T12:20:19;9.70;86.50
35593;DHT22;64447;52.140;5.602;2023-04-25T12:22:47;9.90;88.70
35593;DHT22;64447;52.140;5.602;2023-04-25T12:25:13;10.10;86.00
35593;DHT22;64447;52.140;5.602;2023-04-25T12:28:16;10.30;84.20
35593;DHT22;64447;52.140;5.602;2023-04-25T12:33:24;10.30;84.20
35593;DHT22;64447;52.140;5.602;2023-04-25T12:35:50;10.20;80.30
35593;DHT22;64447;52.140;5.602;2023-04-25T12:38:30;10.10;76.90
35593;DHT22;64447;52.140;5.602;2023-04-25T12:40:58;9.90;76.60
35593;DHT22;64447;52.140;5.602;2023-04-25T12:43:24;10.10;73.50
35593;DHT22;64447;52.140;5.602;2023-04-25T12:45:51;10.20;72.00
35593;DHT22;64447;52.140;5.602;2023-04-25T12:48:18;10.20;74.00
35593;DHT22;64447;52.140;5.602;2023-04-25T12:50:44;10.00;78.30
35593;DHT22;64447;52.140;5.602;2023-04-25T12:53:10;9.90;81.10
35593;DHT22;64447;52.140;5.602;2023-04-25T12:55:36;9.80;80.50
35593;DHT22;64447;52.140;5.602;2023-04-25T12:58:02;10.00;79.80
35593;DHT22;64447;52.140;5.602;2023-04-25T13:00:29;10.60;80.90
35593;DHT22;64447;52.140;5.602;2023-04-25T13:02:55;10.80;75.70
35593;DHT22;64447;52.140;5.602;2023-04-25T13:05:20;11.00;71.40
35593;DHT22;64447;52.140;5.602;2023-04-25T13:07:46;10.60;69.60
35593;DHT22;64447;52.140;5.602;2023-04-25T13:10:12;10.50;68.00
35593;DHT22;64447;52.140;5.602;2023-04-25T13:12:37;10.40;65.10
35593;DHT22;64447;52.140;5.602;2023-04-25T13:15:03;10.50;65.50
35593;DHT22;64447;52.140;5.602;2023-04-25T13:17:29;10.60;65.00
35593;DHT22;64447;52.140;5.602;2023-04-25T13:19:55;10.70;64.60
35593;DHT22;64447;52.140;5.602;2023-04-25T13:22:20;10.60;63.70
35593;DHT22;64447;52.140;5.602;2023-04-25T13:24:46;10.80;62.90
35593;DHT22;64447;52.140;5.602;2023-04-25T13:27:12;10.90;65.80
35593;DHT22;64447;52.140;5.602;2023-04-25T13:29:38;10.90;66.00
35593;DHT22;64447;52.140;5.602;2023-04-25T13:32:07;10.80;67.50
35593;DHT22;64447;52.140;5.602;2023-04-25T13:34:32;10.60;73.90
35593;DHT22;64447;52.140;5.602;2023-04-25T13:36:58;10.20;77.90
35593;DHT22;64447;52.140;5.602;2023-04-25T13:42:46;9.10;91.90
35593;DHT22;64447;52.140;5.602;2023-04-25T13:45:11;9.00;92.30
35593;DHT22;64447;52.140;5.602;2023-04-25T13:47:37;8.80;90.70
35593;DHT22;64447;52.140;5.602;2023-04-25T13:50:04;8.80;90.30
35593;DHT22;64447;52.140;5.602;2023-04-25T13:52:31;8.90;90.30
35593;DHT22;64447;52.140;5.602;2023-04-25T13:54:57;9.20;89.40
35593;DHT22;64447;52.140;5.602;2023-04-25T13:57:23;9.60;90.50
35593;DHT22;64447;52.140;5.602;2023-04-25T13:59:49;9.50;85.60
35593;DHT22;64447;52.140;5.602;2023-04-25T14:02:15;9.60;82.40
35593;DHT22;64447;52.140;5.602;2023-04-25T14:04:42;9.80;81.20
35593;DHT22;64447;52.140;5.602;2023-04-25T14:07:08;10.10;80.70
35593;DHT22;64447;52.140;5.602;2023-04-25T14:12:55;10.10;76.90
35593;DHT22;64447;52.140;5.602;2023-04-25T14:15:21;10.10;78.70
35593;DHT22;64447;52.140;5.602;2023-04-25T14:17:47;10.00;80.30
35593;DHT22;64447;52.140;5.602;2023-04-25T14:20:13;9.90;79.80
35593;DHT22;64447;52.140;5.602;2023-04-25T14:22:39;9.90;74.00
35593;DHT22;64447;52.140;5.602;2023-04-25T14:25:08;9.80;75.30
35593;DHT22;64447;52.140;5.602;2023-04-25T14:27:34;9.90;75.60
35593;DHT22;64447;52.140;5.602;2023-04-25T14:30:00;10.00;75.60
35593;DHT22;64447;52.140;5.602;2023-04-25T14:32:25;10.10;75.20
35593;DHT22;64447;52.140;5.602;2023-04-25T14:34:51;10.20;76.80
35593;DHT22;64447;52.140;5.602;2023-04-25T14:37:17;10.40;77.10
35593;DHT22;64447;52.140;5.602;2023-04-25T14:43:04;10.50;77.00
35593;DHT22;64447;52.140;5.602;2023-04-25T14:45:30;10.10;73.00
35593;DHT22;64447;52.140;5.602;2023-04-25T14:47:56;9.90;80.70
35593;DHT22;64447;52.140;5.602;2023-04-25T14:50:21;9.90;83.80
35593;DHT22;64447;52.140;5.602;2023-04-25T14:52:47;9.60;90.00
35593;DHT22;64447;52.140;5.602;2023-04-25T14:55:13;9.60;90.80
35593;DHT22;64447;52.140;5.602;2023-04-25T14:57:39;9.70;90.60
35593;DHT22;64447;52.140;5.602;2023-04-25T15:00:05;9.90;90.80
35593;DHT22;64447;52.140;5.602;2023-04-25T15:02:35;9.50;86.10
35593;DHT22;64447;52.140;5.602;2023-04-25T15:05:01;9.40;85.20
35593;DHT22;64447;52.140;5.602;2023-04-25T15:07:27;9.60;83.90
35593;DHT22;64447;52.140;5.602;2023-04-25T15:13:14;9.60;81.80
35593;DHT22;64447;52.140;5.602;2023-04-25T15:15:40;9.60;79.90
35593;DHT22;64447;52.140;5.602;2023-04-25T15:18:06;9.40;80.70
35593;DHT22;64447;52.140;5.602;2023-04-25T15:20:32;10.40;81.60
35593;DHT22;64447;52.140;5.602;2023-04-25T15:22:57;9.70;82.10
35593;DHT22;64447;52.140;5.602;2023-04-25T15:25:23;10.50;82.50
35593;DHT22;64447;52.140;5.602;2023-04-25T15:27:49;9.70;79.00
35593;DHT22;64447;52.140;5.602;2023-04-25T15:30:17;9.70;78.30
35593;DHT22;64447;52.140;5.602;2023-04-25T15:32:44;9.80;75.40
35593;DHT22;64447;52.140;5.602;2023-04-25T15:35:10;9.90;74.80
35593;DHT22;64447;52.140;5.602;2023-04-25T15:37:37;9.60;74.00
35593;DHT22;64447;52.140;5.602;2023-04-25T15:43:25;9.20;73.50
35593;DHT22;64447;52.140;5.602;2023-04-25T15:45:51;9.00;77.90
35593;DHT22;64447;52.140;5.602;2023-04-25T15:48:16;9.00;77.40
35593;DHT22;64447;52.140;5.602;2023-04-25T15:50:42;9.20;78.20
35593;DHT22;64447;52.140;5.602;2023-04-25T15:53:08;9.90;79.70
35593;DHT22;64447;52.140;5.602;2023-04-25T15:55:34;9.50;79.30
35593;DHT22;64447;52.140;5.602;2023-04-25T15:57:59;9.10;83.20
35593;DHT22;64447;52.140;5.602;2023-04-25T16:00:25;8.90;85.30
35593;DHT22;64447;52.140;5.602;2023-04-25T16:02:51;8.90;87.30
35593;DHT22;64447;52.140;5.602;2023-04-25T16:05:17;8.90;88.70
35593;DHT22;64447;52.140;5.602;2023-04-25T16:07:43;9.30;87.90
35593;DHT22;64447;52.140;5.602;2023-04-25T16:13:31;9.00;84.00
35593;DHT22;64447;52.140;5.602;2023-04-25T16:15:58;8.90;85.20
35593;DHT22;64447;52.140;5.602;2023-04-25T16:18:23;8.70;86.20
35593;DHT22;64447;52.140;5.602;2023-04-25T16:20:49;8.60;89.50
35593;DHT22;64447;52.140;5.602;2023-04-25T16:23:14;8.50;89.90
35593;DHT22;64447;52.140;5.602;2023-04-25T16:25:40;8.40;91.80
35593;DHT22;64447;52.140;5.602;2023-04-25T16:28:07;8.40;91.60
35593;DHT22;64447;52.140;5.602;2023-04-25T16:30:32;8.40;91.90
35593;DHT22;64447;52.140;5.602;2023-04-25T16:32:58;8.50;91.60
35593;DHT22;64447;52.140;5.602;2023-04-25T16:35:24;8.50;91.50
35593;DHT22;64447;52.140;5.602;2023-04-25T16:37:49;8.40;90.90
35593;DHT22;64447;52.140;5.602;2023-04-25T16:43:37;8.50;90.80
35593;DHT22;64447;52.140;5.602;2023-04-25T16:46:05;8.80;90.70
35593;DHT22;64447;52.140;5.602;2023-04-25T16:48:31;8.60;91.60
35593;DHT22;64447;52.140;5.602;2023-04-25T16:50:57;8.50;91.10
35593;DHT22;64447;52.140;5.602;2023-04-25T16:53:23;8.60;90.80
35593;DHT22;64447;52.140;5.602;2023-04-25T16:55:48;8.80;90.50
35593;DHT22;64447;52.140;5.602;2023-04-25T16:58:14;8.70;90.30
35593;DHT22;64447;52.140;5.602;2023-04-25T17:00:40;8.70;90.30
35593;DHT22;64447;52.140;5.602;2023-04-25T17:03:06;8.80;90.30
35593;DHT22;64447;52.140;5.602;2023-04-25T17:05:32;8.70;89.70
35593;DHT22;64447;52.140;5.602;2023-04-25T17:07:58;8.60;89.90
35593;DHT22;64447;52.140;5.602;2023-04-25T17:13:46;8.70;87.90
35593;DHT22;64447;52.140;5.602;2023-04-25T17:16:11;9.20;87.50
35593;DHT22;64447;52.140;5.602;2023-04-25T17:18:43;8.90;86.00
35593;DHT22;64447;52.140;5.602;2023-04-25T17:21:09;8.80;84.90
35593;DHT22;64447;52.140;5.602;2023-04-25T17:23:35;8.70;81.50